Ralls, Texas
Current Conditions -  °F | °C
As of 7:53 PM on Friday 19 Dec 2014 (Local Time) from KLBB Reporting Station
Overcast Overcast  
Wind Chill: 32°   Ceiling: 1900
Heat Index: 37°   Visibility: 8mi
Dew Point: 35°   Wind: 7mph
Humidity: 93%   Direction: 110°ESE
Pressure: 30.14"   Gusts: NA
Location:  33.67°N, 101.39°W
Report Text: KLBB 200153Z 11006KT 8SM OVC019 03/02 A3014 RMK AO2 SLP207 BR ALQDS T00280017
Loading
Personal Weather Stations






























Interactive Weather Map New forecast layout! Learn more

10-Day Weather Forecast

Advertisements
Track Severe Weather on mobile